CYXT

Terrace Airport

Terrace, , Canada
METAR CYXT 202200Z 24004KT 160V250 15SM VCSH FEW003 FEW016 SCT048TCU BKN070 BKN210 12/09 A3027 RMK CF1SC1TCU2AC2CI2 CF TR SLP259
Observed Flight Rules
Oct-20 @ 22:00 UTC (27 minutes ago) Visual Flight Rules
Wind Visibility Clouds
240° at 4 knots 15 miles
  • Few at 300' AGL
  • Few at 1,600' AGL
  • Scattered at 4,800' AGL
  • Broken at 7,000' AGL
Temperatures Readings
Current 12°C / 54°F
Dewpoint 9°C / 48°F
Humidity 82%
Altimeter 30.27" Hg
Pressure 1025.9 hPa
Elevation 217
METAR CYXT 202200Z 24004KT 160V250 15SM VCSH FEW003 FEW016 SCT048TCU BKN070 BKN210 12/09 A3027 RMK CF1SC1TCU2AC2CI2 CF TR SLP259
Observed Flight Rules
Oct-20 @ 22:00 UTC
(27 minutes ago)
VFR
Wind Visibility
240° at 4 knots 15 miles
Clouds
  • Few at 300' AGL
  • Few at 1,600' AGL
  • Scattered at 4,800' AGL
  • Broken at 7,000' AGL
Temperature Dewpoint
12°C / 54°F 9°C / 48°F
Humidity Altimeter Pressure
82% 30.27" Hg 1025.9 hPa